Time;durP1;ratioP1;P1;durP2;ratioP2;P2;SDS_P1;SDS_P2;PMS_P1;PMS_P2;Temp;Humidity;BMP_temperature;BMP_pressure;BME280_temperature;BME280_humidity;BME280_pressure;Samples;Min_cycle;Max_cycle;Signal;HPM_P1;HPM_P2
2021/10/05 00:01:43;;;;;;;943.75;839.80;;;;;;;;;;5007724;28;20045;-79
2021/10/05 00:04:09;;;;;;;940.38;836.97;;;;;;;;;;5007733;28;20033;-79
2021/10/05 00:06:35;;;;;;;940.67;836.92;;;;;;;;;;5014728;28;20029;-78
2021/10/05 00:09:02;;;;;;;941.95;838.05;;;;;;;;;;5006781;28;20532;-78
2021/10/05 00:11:28;;;;;;;953.70;849.42;;;;;;;;;;5007634;28;20026;-78
2021/10/05 00:13:54;;;;;;;941.38;837.50;;;;;;;;;;5008986;28;20427;-78
2021/10/05 00:16:20;;;;;;;936.85;833.17;;;;;;;;;;5007030;28;20022;-78
2021/10/05 00:18:47;;;;;;;947.60;843.53;;;;;;;;;;5009516;28;20239;-79
2021/10/05 00:21:13;;;;;;;940.42;836.58;;;;;;;;;;5007760;28;20033;-78
2021/10/05 00:23:39;;;;;;;939.60;835.70;;;;;;;;;;5004970;28;20486;-79
2021/10/05 00:26:06;;;;;;;936.47;832.97;;;;;;;;;;5007782;28;20088;-79
2021/10/05 00:28:32;;;;;;;935.55;832.00;;;;;;;;;;5008798;28;20399;-79
2021/10/05 00:30:58;;;;;;;938.85;835.05;;;;;;;;;;5007108;28;20034;-79
2021/10/05 00:33:24;;;;;;;931.85;827.10;;;;;;;;;;5007136;28;20017;-79
2021/10/05 00:35:50;;;;;;;938.30;834.03;;;;;;;;;;5007263;28;20022;-80
2021/10/05 00:38:17;;;;;;;932.22;827.15;;;;;;;;;;5007307;28;20100;-78
2021/10/05 00:40:43;;;;;;;939.03;835.22;;;;;;;;;;5010750;28;20046;-80
2021/10/05 00:43:09;;;;;;;938.25;833.35;;;;;;;;;;5008059;28;20596;-79
2021/10/05 00:45:36;;;;;;;929.00;822.80;;;;;;;;;;5007173;28;20033;-80
2021/10/05 00:48:02;;;;;;;927.50;819.13;;;;;;;;;;5007071;28;20129;-80
2021/10/05 00:50:28;;;;;;;932.85;822.50;;;;;;;;;;5006760;28;20038;-78
2021/10/05 00:52:55;;;;;;;938.05;830.83;;;;;;;;;;5006200;28;20521;-78
2021/10/05 00:55:21;;;;;;;928.38;818.97;;;;;;;;;;5007418;28;20054;-79
2021/10/05 00:57:47;;;;;;;940.78;828.60;;;;;;;;;;5023925;28;20026;-79
2021/10/05 01:00:14;;;;;;;933.13;823.67;;;;;;;;;;5007204;28;20040;-79
2021/10/05 01:02:42;;;;;;;939.28;830.78;;;;;;;;;;5007349;28;20088;-78
2021/10/05 01:05:08;;;;;;;935.67;821.20;;;;;;;;;;5007036;28;20026;-78
2021/10/05 01:07:34;;;;;;;935.92;821.92;;;;;;;;;;5007176;28;20497;-78
2021/10/05 01:10:00;;;;;;;933.42;825.42;;;;;;;;;;5008485;28;20029;-78
2021/10/05 01:12:26;;;;;;;934.42;822.15;;;;;;;;;;5006100;28;20290;-79
2021/10/05 01:14:52;;;;;;;935.60;825.55;;;;;;;;;;5006078;28;20049;-79
2021/10/05 01:17:19;;;;;;;935.58;820.67;;;;;;;;;;5006729;28;20038;-78
2021/10/05 01:19:46;;;;;;;933.42;818.30;;;;;;;;;;5008139;28;20458;-79
2021/10/05 01:22:12;;;;;;;934.50;818.92;;;;;;;;;;5005455;28;20057;-78
2021/10/05 01:24:38;;;;;;;930.25;814.53;;;;;;;;;;5007145;28;20030;-78
2021/10/05 01:27:05;;;;;;;931.95;816.42;;;;;;;;;;5006534;28;20680;-79
2021/10/05 01:29:32;;;;;;;934.08;818.53;;;;;;;;;;5006137;28;20030;-78
2021/10/05 01:32:01;;;;;;;938.60;822.97;;;;;;;;;;5013061;28;20030;-80
2021/10/05 01:34:27;;;;;;;934.72;817.65;;;;;;;;;;5006237;28;20030;-78
2021/10/05 01:36:54;;;;;;;938.50;823.22;;;;;;;;;;5006553;28;20273;-78
2021/10/05 01:39:28;;;;;;;935.05;813.17;;;;;;;;;;5006260;28;20080;-78
2021/10/05 01:41:56;;;;;;;933.85;816.40;;;;;;;;;;5008229;28;20026;-78
2021/10/05 01:44:22;;;;;;;934.20;816.28;;;;;;;;;;5004969;28;20164;-78
2021/10/05 01:46:50;;;;;;;935.25;818.10;;;;;;;;;;5006545;28;20112;-78
2021/10/05 01:49:16;;;;;;;933.55;816.50;;;;;;;;;;5012986;28;20544;-78
2021/10/05 01:51:43;;;;;;;932.58;815.88;;;;;;;;;;5035734;28;20117;-79
2021/10/05 01:54:09;;;;;;;933.67;813.67;;;;;;;;;;5003559;28;20405;-78
2021/10/05 01:56:35;;;;;;;935.35;821.28;;;;;;;;;;5007529;28;20034;-78
2021/10/05 01:59:02;;;;;;;936.35;820.25;;;;;;;;;;5006934;28;20046;-77
2021/10/05 02:01:28;;;;;;;931.45;815.05;;;;;;;;;;5005566;28;20172;-78
2021/10/05 02:03:54;;;;;;;932.90;813.17;;;;;;;;;;5004913;28;20026;-79
2021/10/05 02:06:20;;;;;;;932.45;812.47;;;;;;;;;;5007823;28;20030;-79
2021/10/05 02:08:46;;;;;;;932.30;810.67;;;;;;;;;;5007500;28;20081;-78
2021/10/05 02:11:12;;;;;;;935.55;824.13;;;;;;;;;;5007613;28;20030;-78
2021/10/05 02:13:40;;;;;;;932.08;810.10;;;;;;;;;;5005009;28;20032;-78
2021/10/05 02:16:06;;;;;;;927.22;802.42;;;;;;;;;;5005710;28;20028;-78
2021/10/05 02:18:32;;;;;;;931.60;811.70;;;;;;;;;;5006173;28;20034;-78
2021/10/05 02:20:58;;;;;;;928.50;807.72;;;;;;;;;;5005801;28;20033;-77
2021/10/05 02:26:10;;;;;;;929.80;802.63;;;;;;;;;;5007408;28;20053;-77
2021/10/05 02:28:36;;;;;;;931.92;811.20;;;;;;;;;;5004650;28;20434;-77
2021/10/05 02:31:03;;;;;;;934.10;817.97;;;;;;;;;;5010215;28;20084;-78
2021/10/05 02:33:29;;;;;;;934.13;820.13;;;;;;;;;;5008723;28;20033;-78
2021/10/05 02:35:55;;;;;;;934.72;815.28;;;;;;;;;;5009584;28;20363;-78
2021/10/05 02:38:22;;;;;;;931.28;812.28;;;;;;;;;;5010087;28;20037;-78
2021/10/05 02:40:48;;;;;;;934.10;818.30;;;;;;;;;;5010651;28;20030;-79
2021/10/05 02:43:14;;;;;;;934.88;816.65;;;;;;;;;;5010535;28;20030;-79
2021/10/05 02:45:40;;;;;;;929.60;807.88;;;;;;;;;;5009802;28;20058;-77
2021/10/05 02:48:06;;;;;;;932.13;813.83;;;;;;;;;;5042614;28;20033;-79
2021/10/05 02:50:32;;;;;;;931.28;812.47;;;;;;;;;;5009302;28;20034;-78
2021/10/05 02:52:58;;;;;;;932.25;813.53;;;;;;;;;;5008059;28;20025;-79
2021/10/05 02:55:24;;;;;;;934.50;814.90;;;;;;;;;;5009411;28;20030;-79
2021/10/05 02:57:50;;;;;;;931.35;809.63;;;;;;;;;;5012795;28;20036;-77
2021/10/05 03:00:16;;;;;;;931.63;807.63;;;;;;;;;;5011128;28;20049;-78
2021/10/05 03:02:42;;;;;;;934.15;817.30;;;;;;;;;;5007696;28;20113;-78
2021/10/05 03:05:09;;;;;;;930.53;809.60;;;;;;;;;;5008232;28;20072;-77
2021/10/05 03:07:36;;;;;;;930.60;805.05;;;;;;;;;;5009759;28;20466;-77
2021/10/05 03:10:02;;;;;;;932.42;807.38;;;;;;;;;;5008483;28;20026;-77
2021/10/05 03:12:28;;;;;;;932.42;812.15;;;;;;;;;;5010877;28;20030;-79
2021/10/05 03:14:54;;;;;;;933.58;813.40;;;;;;;;;;5013403;28;20026;-78
2021/10/05 03:17:20;;;;;;;932.30;810.03;;;;;;;;;;5009510;28;20398;-77
2021/10/05 03:19:46;;;;;;;933.22;814.42;;;;;;;;;;5009285;28;20116;-77
2021/10/05 03:22:12;;;;;;;934.20;810.17;;;;;;;;;;5006247;28;20068;-77
2021/10/05 03:24:40;;;;;;;926.78;802.25;;;;;;;;;;5008350;28;20053;-79
2021/10/05 03:27:06;;;;;;;927.33;801.05;;;;;;;;;;5010023;28;20027;-77
2021/10/05 03:29:32;;;;;;;933.22;804.35;;;;;;;;;;5008863;28;20469;-77
2021/10/05 03:31:58;;;;;;;926.08;799.45;;;;;;;;;;5012804;28;20506;-78
2021/10/05 03:34:24;;;;;;;931.70;802.47;;;;;;;;;;5008554;28;20505;-77
2021/10/05 03:36:50;;;;;;;928.42;795.03;;;;;;;;;;5008415;28;20037;-78
2021/10/05 03:39:16;;;;;;;927.60;798.33;;;;;;;;;;5007021;28;20053;-78
2021/10/05 03:41:42;;;;;;;930.60;798.60;;;;;;;;;;5008556;28;20029;-77
2021/10/05 03:44:10;;;;;;;927.70;795.42;;;;;;;;;;5008256;28;20092;-79
2021/10/05 03:46:36;;;;;;;928.03;797.13;;;;;;;;;;5009352;28;20057;-77
2021/10/05 03:49:02;;;;;;;929.55;798.92;;;;;;;;;;5013122;28;20038;-78
2021/10/05 03:51:28;;;;;;;926.60;793.72;;;;;;;;;;5009395;28;20033;-79
2021/10/05 03:53:54;;;;;;;926.40;796.10;;;;;;;;;;5005554;28;20028;-79
2021/10/05 03:56:21;;;;;;;925.63;793.35;;;;;;;;;;5009291;28;20038;-78
2021/10/05 03:58:47;;;;;;;932.08;805.83;;;;;;;;;;5009801;28;20038;-78
2021/10/05 04:01:13;;;;;;;926.28;796.00;;;;;;;;;;5006772;28;20025;-79
2021/10/05 04:03:41;;;;;;;926.67;795.33;;;;;;;;;;5008844;28;20266;-78
2021/10/05 04:06:07;;;;;;;926.80;798.97;;;;;;;;;;5007897;28;20034;-79
2021/10/05 04:08:33;;;;;;;926.20;798.42;;;;;;;;;;5007518;28;20034;-79
2021/10/05 04:10:59;;;;;;;930.45;800.97;;;;;;;;;;5007729;28;20033;-78
2021/10/05 04:13:25;;;;;;;926.00;792.33;;;;;;;;;;5008282;28;20034;-79
2021/10/05 04:15:51;;;;;;;926.80;793.45;;;;;;;;;;5007704;28;20022;-78
2021/10/05 04:18:17;;;;;;;929.60;797.53;;;;;;;;;;5009202;28;20065;-79
2021/10/05 04:20:43;;;;;;;924.25;778.38;;;;;;;;;;5041847;28;20041;-78
2021/10/05 04:23:09;;;;;;;921.35;776.92;;;;;;;;;;5010929;28;20398;-78
2021/10/05 04:25:35;;;;;;;923.72;778.45;;;;;;;;;;5007728;28;20084;-79
2021/10/05 04:28:02;;;;;;;926.55;790.67;;;;;;;;;;5008948;28;20430;-78
2021/10/05 04:30:28;;;;;;;925.45;787.55;;;;;;;;;;5009247;28;20062;-78
2021/10/05 04:32:54;;;;;;;922.40;786.78;;;;;;;;;;5006782;28;20076;-78
2021/10/05 04:35:20;;;;;;;922.55;779.90;;;;;;;;;;5009083;28;20552;-79
2021/10/05 04:37:46;;;;;;;926.15;784.40;;;;;;;;;;5004350;28;20034;-78
2021/10/05 04:40:12;;;;;;;922.33;781.72;;;;;;;;;;5020750;28;20327;-78
2021/10/05 04:42:38;;;;;;;924.95;789.55;;;;;;;;;;5008718;28;20033;-79
2021/10/05 04:45:05;;;;;;;926.38;791.90;;;;;;;;;;5007387;28;20036;-79
2021/10/05 04:47:31;;;;;;;927.80;791.05;;;;;;;;;;5007932;28;20034;-80
2021/10/05 04:49:57;;;;;;;923.85;786.47;;;;;;;;;;5007822;28;20057;-79
2021/10/05 04:52:23;;;;;;;928.00;793.60;;;;;;;;;;5006128;28;20389;-78
2021/10/05 04:54:49;;;;;;;928.17;796.88;;;;;;;;;;5008928;28;20462;-78
2021/10/05 04:57:15;;;;;;;927.67;792.90;;;;;;;;;;5006299;28;20026;-78
2021/10/05 04:59:41;;;;;;;927.28;791.85;;;;;;;;;;5004595;28;20084;-78
2021/10/05 05:02:07;;;;;;;923.03;788.15;;;;;;;;;;5003024;28;20038;-79
2021/10/05 05:04:33;;;;;;;924.30;784.70;;;;;;;;;;5006576;28;20103;-78
2021/10/05 05:06:59;;;;;;;926.47;786.88;;;;;;;;;;5008770;28;20044;-79
2021/10/05 05:09:25;;;;;;;922.80;783.42;;;;;;;;;;5007817;28;20026;-80
2021/10/05 05:11:51;;;;;;;924.33;790.00;;;;;;;;;;5007480;28;20037;-78
2021/10/05 05:14:18;;;;;;;923.22;785.30;;;;;;;;;;5006941;28;20037;-80
2021/10/05 05:16:44;;;;;;;921.85;784.58;;;;;;;;;;5007700;28;20064;-80
2021/10/05 05:19:12;;;;;;;922.42;788.90;;;;;;;;;;5006694;28;20545;-78
2021/10/05 05:21:38;;;;;;;926.70;792.60;;;;;;;;;;5006806;28;20304;-77
2021/10/05 05:24:04;;;;;;;923.75;784.58;;;;;;;;;;5002505;28;20037;-80
2021/10/05 05:26:30;;;;;;;924.38;788.28;;;;;;;;;;5006791;28;20184;-79
2021/10/05 05:28:56;;;;;;;928.10;794.53;;;;;;;;;;5010691;28;20565;-79
2021/10/05 05:31:22;;;;;;;927.17;795.80;;;;;;;;;;5006474;28;20032;-79
2021/10/05 05:33:49;;;;;;;922.15;783.88;;;;;;;;;;5007746;28;20025;-78
2021/10/05 05:36:15;;;;;;;925.45;789.72;;;;;;;;;;5006545;28;20651;-80
2021/10/05 05:38:41;;;;;;;924.10;784.65;;;;;;;;;;5003911;28;20036;-80
2021/10/05 05:41:07;;;;;;;929.40;798.70;;;;;;;;;;5004638;28;20441;-78
2021/10/05 05:43:33;;;;;;;923.53;787.20;;;;;;;;;;5004455;28;20032;-79
2021/10/05 05:45:59;;;;;;;925.08;791.30;;;;;;;;;;5007884;28;20456;-79
2021/10/05 05:48:25;;;;;;;925.72;792.45;;;;;;;;;;5002367;28;20025;-80
2021/10/05 05:50:51;;;;;;;927.70;801.47;;;;;;;;;;5007755;28;20430;-80
2021/10/05 05:53:18;;;;;;;929.30;799.83;;;;;;;;;;5003543;28;20033;-79
2021/10/05 05:55:44;;;;;;;925.38;790.85;;;;;;;;;;5008193;28;20032;-80
2021/10/05 05:58:18;;;;;;;922.03;783.08;;;;;;;;;;5005189;28;20137;-79
2021/10/05 06:00:45;;;;;;;924.13;787.08;;;;;;;;;;5033791;28;20326;-77
2021/10/05 06:03:11;;;;;;;923.45;785.63;;;;;;;;;;5006496;28;20040;-78
2021/10/05 06:05:37;;;;;;;924.40;787.03;;;;;;;;;;5008968;28;20057;-79
2021/10/05 06:08:04;;;;;;;921.42;783.40;;;;;;;;;;5009498;28;20040;-79
2021/10/05 06:10:30;;;;;;;922.75;783.05;;;;;;;;;;5009206;28;20433;-79
2021/10/05 06:12:57;;;;;;;925.10;790.15;;;;;;;;;;5010144;28;20045;-80
2021/10/05 06:15:23;;;;;;;923.47;791.05;;;;;;;;;;5010138;28;20030;-81
2021/10/05 06:17:52;;;;;;;923.28;784.45;;;;;;;;;;5008944;28;20069;-79
2021/10/05 06:20:22;;;;;;;922.22;781.92;;;;;;;;;;5010427;28;20034;-81
2021/10/05 06:22:49;;;;;;;919.03;775.47;;;;;;;;;;5009504;28;20092;-79
2021/10/05 06:25:19;;;;;;;916.97;771.47;;;;;;;;;;5009858;28;20029;-80
2021/10/05 06:27:46;;;;;;;921.85;783.72;;;;;;;;;;5011035;28;20076;-80
2021/10/05 06:30:13;;;;;;;920.95;778.13;;;;;;;;;;5009912;28;20041;-81
2021/10/05 06:32:39;;;;;;;921.63;786.53;;;;;;;;;;5009611;28;20030;-78
2021/10/05 06:35:06;;;;;;;925.78;793.10;;;;;;;;;;5011089;28;20022;-81
2021/10/05 06:37:32;;;;;;;927.72;802.30;;;;;;;;;;5009919;28;20062;-81
2021/10/05 06:39:59;;;;;;;930.97;811.78;;;;;;;;;;5009467;28;20088;-78
2021/10/05 06:42:25;;;;;;;930.22;812.67;;;;;;;;;;5008395;28;20335;-79
2021/10/05 06:44:51;;;;;;;930.80;817.25;;;;;;;;;;5010897;28;20032;-79
2021/10/05 06:47:17;;;;;;;929.28;811.75;;;;;;;;;;5009588;28;20482;-80
2021/10/05 06:49:43;;;;;;;934.00;828.22;;;;;;;;;;5014219;28;20030;-80
2021/10/05 06:52:09;;;;;;;940.78;835.47;;;;;;;;;;5003968;28;20055;-82
2021/10/05 06:54:35;;;;;;;939.20;833.90;;;;;;;;;;5016942;28;20109;-79
2021/10/05 06:57:02;;;;;;;937.22;833.25;;;;;;;;;;5010420;28;20026;-79
2021/10/05 06:59:28;;;;;;;941.97;838.08;;;;;;;;;;5009354;28;20449;-79
2021/10/05 07:01:54;;;;;;;952.28;847.75;;;;;;;;;;5005769;28;20029;-80
2021/10/05 07:04:20;;;;;;;957.58;852.95;;;;;;;;;;5009078;28;20125;-80
2021/10/05 07:06:47;;;;;;;951.28;847.10;;;;;;;;;;5009110;28;20045;-77
2021/10/05 07:09:13;;;;;;;963.58;859.08;;;;;;;;;;5008911;28;20398;-80
2021/10/05 07:11:39;;;;;;;964.30;859.55;;;;;;;;;;5008763;28;20034;-79
2021/10/05 07:14:05;;;;;;;970.85;865.65;;;;;;;;;;5008712;28;20025;-79
2021/10/05 07:16:32;;;;;;;981.33;875.72;;;;;;;;;;5005808;28;20038;-78
2021/10/05 07:18:58;;;;;;;973.30;868.10;;;;;;;;;;5009770;28;20513;-78
2021/10/05 07:21:26;;;;;;;985.78;880.15;;;;;;;;;;5007554;28;20034;-78
2021/10/05 07:23:52;;;;;;;985.88;880.47;;;;;;;;;;5006915;28;20133;-81
2021/10/05 07:26:18;;;;;;;994.30;888.50;;;;;;;;;;5008605;28;20104;-80
2021/10/05 07:28:44;;;;;;;990.30;885.05;;;;;;;;;;5015685;28;20030;-81
2021/10/05 07:31:11;;;;;;;996.15;890.53;;;;;;;;;;5010470;28;20037;-80
2021/10/05 07:33:37;;;;;;;995.88;890.25;;;;;;;;;;5010773;28;20030;-78
2021/10/05 07:36:03;;;;;;;992.22;886.42;;;;;;;;;;5008580;28;20674;-81
2021/10/05 07:38:29;;;;;;;984.85;879.63;;;;;;;;;;5011121;28;20053;-81
2021/10/05 07:40:55;;;;;;;981.35;876.33;;;;;;;;;;5009590;28;20036;-80
2021/10/05 07:43:22;;;;;;;991.05;885.35;;;;;;;;;;5010796;28;20029;-80
2021/10/05 07:45:49;;;;;;;999.72;893.88;;;;;;;;;;5011438;28;20049;-80
2021/10/05 07:48:15;;;;;;;1001.55;895.72;;;;;;;;;;5006349;28;20048;-79
2021/10/05 07:50:42;;;;;;;1009.60;903.33;;;;;;;;;;5006216;28;20081;-81
2021/10/05 07:53:08;;;;;;;1004.50;898.72;;;;;;;;;;4988380;28;20504;-78
2021/10/05 07:55:34;;;;;;;1005.13;899.28;;;;;;;;;;5011590;28;20105;-80
2021/10/05 07:58:01;;;;;;;1007.30;901.50;;;;;;;;;;5008430;28;20466;-80
2021/10/05 08:00:27;;;;;;;1007.20;901.20;;;;;;;;;;5006593;28;20053;-78
2021/10/05 08:02:54;;;;;;;1009.92;903.97;;;;;;;;;;5006431;28;20033;-79
2021/10/05 08:05:20;;;;;;;1006.47;900.58;;;;;;;;;;5019560;28;20046;-79
2021/10/05 08:07:47;;;;;;;1012.55;906.38;;;;;;;;;;5005407;28;20085;-80
2021/10/05 08:10:14;;;;;;;1013.67;907.30;;;;;;;;;;5005782;28;20030;-82
2021/10/05 08:12:40;;;;;;;1021.88;915.28;;;;;;;;;;5012020;28;20030;-81
2021/10/05 08:15:07;;;;;;;1021.92;915.28;;;;;;;;;;5009316;28;20097;-79
2021/10/05 08:17:34;;;;;;;1019.05;912.78;;;;;;;;;;5008488;28;20041;-78
2021/10/05 08:20:02;;;;;;;1026.82;920.25;;;;;;;;;;5008590;28;20037;-77
2021/10/05 08:22:28;;;;;;;1035.10;927.75;;;;;;;;;;5004991;28;20036;-78
2021/10/05 08:24:56;;;;;;;1040.38;932.90;;;;;;;;;;5007791;28;20038;-79
2021/10/05 08:27:22;;;;;;;1049.43;941.70;;;;;;;;;;5006606;28;20034;-77
2021/10/05 08:29:48;;;;;;;1055.25;947.28;;;;;;;;;;5003493;28;20638;-79
2021/10/05 08:32:18;;;;;;;1068.20;959.63;;;;;;;;;;5004441;28;20036;-79
2021/10/05 08:34:45;;;;;;;1077.65;968.53;;;;;;;;;;5007079;28;20481;-78
2021/10/05 08:37:11;;;;;;;1083.07;974.20;;;;;;;;;;5008271;28;20359;-79
2021/10/05 08:39:37;;;;;;;1083.15;974.50;;;;;;;;;;5007651;28;20100;-79
2021/10/05 08:42:05;;;;;;;1077.88;969.28;;;;;;;;;;5003452;28;20022;-78
2021/10/05 08:44:31;;;;;;;1080.03;971.55;;;;;;;;;;5001634;28;20036;-78
2021/10/05 08:47:07;;;;;;;1080.72;972.17;;;;;;;;;;5004876;28;20566;-78
2021/10/05 08:49:34;;;;;;;1076.90;968.42;;;;;;;;;;5004292;28;20026;-81
2021/10/05 08:52:00;;;;;;;1090.80;981.72;;;;;;;;;;5005478;28;20512;-78
2021/10/05 08:54:30;;;;;;;1087.13;978.42;;;;;;;;;;5005619;28;20431;-79
2021/10/05 08:56:56;;;;;;;;;;;;;;;;;;5005294;28;20025;-79
2021/10/05 08:59:22;;;;;;;1068.53;960.30;;;;;;;;;;5008479;28;19925;-79
2021/10/05 09:01:51;;;;;;;1084.03;975.47;;;;;;;;;;5020634;28;20456;-79
2021/10/05 09:04:17;;;;;;;1088.32;979.53;;;;;;;;;;5021655;28;20518;-80
2021/10/05 09:06:51;;;;;;;1108.35;996.85;;;;;;;;;;5003914;28;20104;-78
2021/10/05 09:09:18;;;;;;;1106.65;995.95;;;;;;;;;;5001227;28;20053;-80
2021/10/05 09:11:47;;;;;;;1106.65;996.05;;;;;;;;;;5006760;28;20034;-78
2021/10/05 09:14:14;;;;;;;1107.93;997.20;;;;;;;;;;5004720;28;20036;-81
2021/10/05 09:16:40;;;;;;;1106.40;995.90;;;;;;;;;;5000382;28;20037;-79
2021/10/05 09:19:11;;;;;;;1109.32;997.67;;;;;;;;;;4997033;28;20061;-78
2021/10/05 09:21:45;;;;;;;1103.40;994.00;;;;;;;;;;5000909;28;20033;-80
2021/10/05 09:24:11;;;;;;;1105.90;995.67;;;;;;;;;;4998723;28;20100;-78
2021/10/05 09:26:59;;;;;;;1106.78;996.47;;;;;;;;;;5004032;28;20029;-78
2021/10/05 09:29:28;;;;;;;1102.35;992.70;;;;;;;;;;5001595;28;20156;-78
2021/10/05 09:31:58;;;;;;;1102.38;992.90;;;;;;;;;;5006896;28;20570;-78
2021/10/05 09:34:34;;;;;;;1100.78;991.60;;;;;;;;;;5014190;28;20026;-78
2021/10/05 09:37:19;;;;;;;1101.93;992.67;;;;;;;;;;5007249;28;20061;-79
2021/10/05 09:39:45;;;;;;;1092.05;983.22;;;;;;;;;;5001062;28;20017;-79
2021/10/05 09:42:17;;;;;;;1090.90;982.10;;;;;;;;;;5000779;28;20045;-78
2021/10/05 09:44:43;;;;;;;1082.80;974.53;;;;;;;;;;5031184;28;20484;-78
2021/10/05 09:47:09;;;;;;;1083.50;975.22;;;;;;;;;;4997395;28;20030;-76
2021/10/05 09:49:42;;;;;;;1085.57;977.17;;;;;;;;;;5004126;28;20040;-78
2021/10/05 09:52:09;;;;;;;1085.65;976.92;;;;;;;;;;5000665;28;20509;-77
2021/10/05 09:54:35;;;;;;;1081.90;973.80;;;;;;;;;;5002330;28;20022;-78
2021/10/05 09:57:01;;;;;;;1087.35;978.75;;;;;;;;;;5004110;28;20129;-77
2021/10/05 09:59:27;;;;;;;1091.35;982.60;;;;;;;;;;5002911;28;20048;-78
2021/10/05 10:01:54;;;;;;;1098.85;989.85;;;;;;;;;;5006140;28;20061;-78
2021/10/05 10:04:24;;;;;;;1087.22;978.65;;;;;;;;;;5000667;28;20045;-78
2021/10/05 10:06:50;;;;;;;1082.18;974.05;;;;;;;;;;5002949;28;20463;-81
2021/10/05 10:09:17;;;;;;;1093.90;985.30;;;;;;;;;;5004168;28;20661;-78
2021/10/05 10:11:43;;;;;;;1097.32;988.13;;;;;;;;;;5002745;28;20110;-81
2021/10/05 10:14:09;;;;;;;1092.60;984.35;;;;;;;;;;5008555;28;20038;-78
2021/10/05 10:16:36;;;;;;;1105.13;995.40;;;;;;;;;;5008610;28;20026;-77
2021/10/05 10:19:03;;;;;;;1095.10;986.55;;;;;;;;;;5009799;28;20029;-77
2021/10/05 10:21:31;;;;;;;1099.35;990.47;;;;;;;;;;5004661;28;20038;-77
2021/10/05 10:24:11;;;;;;;1104.90;995.22;;;;;;;;;;5004672;28;20112;-78
2021/10/05 10:26:40;;;;;;;1105.20;995.40;;;;;;;;;;5006986;28;20029;-79
2021/10/05 10:29:07;;;;;;;1117.60;999.90;;;;;;;;;;5005853;28;20026;-77
2021/10/05 10:31:39;;;;;;;1123.70;999.90;;;;;;;;;;5005097;28;20034;-77
2021/10/05 10:34:05;;;;;;;1115.68;999.67;;;;;;;;;;5000666;28;20022;-81
2021/10/05 10:36:42;;;;;;;1109.25;997.75;;;;;;;;;;5010177;28;20388;-78
2021/10/05 10:39:09;;;;;;;1113.35;999.13;;;;;;;;;;5003634;28;20056;-78
2021/10/05 10:41:39;;;;;;;1118.90;999.90;;;;;;;;;;5001376;28;20132;-79
2021/10/05 10:44:06;;;;;;;1126.93;999.90;;;;;;;;;;5003044;28;20038;-79
2021/10/05 10:46:36;;;;;;;1128.13;999.90;;;;;;;;;;5000120;28;20068;-77
2021/10/05 10:49:03;;;;;;;1124.65;999.90;;;;;;;;;;5029885;28;20509;-78
2021/10/05 10:51:33;;;;;;;1121.15;999.90;;;;;;;;;;5005397;28;20029;-79
2021/10/05 10:54:00;;;;;;;1114.27;999.90;;;;;;;;;;4998918;28;20771;-77
2021/10/05 10:56:36;;;;;;;1127.25;999.90;;;;;;;;;;5008512;28;20276;-79
2021/10/05 10:59:03;;;;;;;1120.18;999.90;;;;;;;;;;5004068;28;20342;-78
2021/10/05 11:01:39;;;;;;;1124.68;999.90;;;;;;;;;;5008485;28;20102;-80
2021/10/05 11:04:05;;;;;;;1122.82;999.90;;;;;;;;;;5005728;28;20258;-80
2021/10/05 11:06:31;;;;;;;1118.07;999.90;;;;;;;;;;5004385;28;20030;-77
2021/10/05 11:08:58;;;;;;;1117.70;999.90;;;;;;;;;;5006913;28;20179;-77
2021/10/05 11:11:36;;;;;;;1123.90;999.90;;;;;;;;;;5007727;28;20371;-78
2021/10/05 11:14:05;;;;;;;1117.47;999.90;;;;;;;;;;5009304;28;20146;-77
2021/10/05 11:16:32;;;;;;;1124.28;999.90;;;;;;;;;;5013352;28;20025;-78
2021/10/05 11:19:18;;;;;;;1126.55;999.90;;;;;;;;;;5009534;28;20022;-78
2021/10/05 11:21:47;;;;;;;1127.65;999.90;;;;;;;;;;5010852;28;20033;-78
2021/10/05 11:24:14;;;;;;;1128.60;999.90;;;;;;;;;;5003715;28;20026;-77
2021/10/05 11:26:42;;;;;;;1129.68;999.90;;;;;;;;;;5020915;28;20032;-78
2021/10/05 11:29:09;;;;;;;1114.32;999.58;;;;;;;;;;5008140;28;20422;-81
2021/10/05 11:31:48;;;;;;;1121.38;999.90;;;;;;;;;;5000734;28;20026;-76
2021/10/05 11:34:15;;;;;;;1115.47;999.90;;;;;;;;;;5004325;28;20089;-78
2021/10/05 11:36:42;;;;;;;1110.93;998.58;;;;;;;;;;5007181;28;20594;-77
2021/10/05 11:39:09;;;;;;;1115.28;999.63;;;;;;;;;;5009887;28;20513;-77
2021/10/05 11:41:37;;;;;;;1107.60;997.05;;;;;;;;;;5009538;28;20109;-80
2021/10/05 11:44:12;;;;;;;1099.65;990.72;;;;;;;;;;5010030;28;20080;-77
2021/10/05 11:46:39;;;;;;;1098.18;989.33;;;;;;;;;;5009126;28;20092;-79
2021/10/05 11:49:05;;;;;;;1090.85;982.28;;;;;;;;;;5005316;28;20196;-77
2021/10/05 11:51:41;;;;;;;1093.32;984.85;;;;;;;;;;5000027;28;20490;-78
2021/10/05 11:54:16;;;;;;;1088.43;980.17;;;;;;;;;;5000592;28;20030;-78
2021/10/05 11:56:42;;;;;;;1095.35;986.40;;;;;;;;;;5002192;28;20057;-79
2021/10/05 11:59:08;;;;;;;1092.43;983.83;;;;;;;;;;5002728;28;20034;-78
2021/10/05 12:01:34;;;;;;;1101.38;992.50;;;;;;;;;;5002797;28;20513;-78
2021/10/05 12:04:08;;;;;;;1094.20;985.75;;;;;;;;;;5002354;28;20045;-77
2021/10/05 12:06:39;;;;;;;1098.47;989.55;;;;;;;;;;5001994;28;20029;-79
2021/10/05 12:09:07;;;;;;;1106.07;996.10;;;;;;;;;;5005859;28;20577;-77
2021/10/05 12:11:36;;;;;;;1106.90;996.65;;;;;;;;;;5009760;28;20030;-77
2021/10/05 12:14:03;;;;;;;1105.43;995.53;;;;;;;;;;5036563;28;20033;-77
2021/10/05 12:16:29;;;;;;;1101.05;992.03;;;;;;;;;;5002402;28;20029;-78
2021/10/05 12:18:56;;;;;;;1115.75;999.67;;;;;;;;;;5008532;28;20024;-78
2021/10/05 12:21:22;;;;;;;1119.32;999.90;;;;;;;;;;5008328;28;20025;-81
2021/10/05 12:23:50;;;;;;;1118.60;999.90;;;;;;;;;;4997656;28;20026;-80
2021/10/05 12:26:16;;;;;;;1117.70;999.90;;;;;;;;;;5001458;28;20053;-78
2021/10/05 12:28:54;;;;;;;1116.50;999.90;;;;;;;;;;5002426;28;20034;-79
2021/10/05 12:31:20;;;;;;;1108.38;997.45;;;;;;;;;;5004608;28;20362;-78
2021/10/05 12:33:53;;;;;;;1102.00;993.17;;;;;;;;;;5005920;28;20033;-77
2021/10/05 12:36:20;;;;;;;1109.63;997.90;;;;;;;;;;5006043;28;20080;-76
2021/10/05 12:38:46;;;;;;;1105.00;995.28;;;;;;;;;;5007734;28;20068;-80
2021/10/05 12:41:13;;;;;;;1097.00;988.42;;;;;;;;;;5005579;28;20025;-78
2021/10/05 12:43:40;;;;;;;1109.13;997.55;;;;;;;;;;5004794;28;20033;-78
2021/10/05 12:46:10;;;;;;;1103.78;994.50;;;;;;;;;;5007863;28;20033;-80
2021/10/05 12:48:40;;;;;;;1107.70;997.30;;;;;;;;;;5009633;28;20354;-80
2021/10/05 12:51:06;;;;;;;1096.68;988.15;;;;;;;;;;5006049;28;20092;-79
2021/10/05 12:53:32;;;;;;;1101.95;993.03;;;;;;;;;;5001600;28;20049;-79
2021/10/05 12:55:59;;;;;;;1112.03;998.92;;;;;;;;;;4998251;28;20033;-79
2021/10/05 12:58:25;;;;;;;1112.00;998.72;;;;;;;;;;4996792;28;20025;-79
2021/10/05 13:00:51;;;;;;;1112.45;999.00;;;;;;;;;;5002271;28;20426;-79
2021/10/05 13:03:17;;;;;;;1113.65;999.13;;;;;;;;;;5003542;28;20441;-78
2021/10/05 13:05:45;;;;;;;1120.60;999.90;;;;;;;;;;5005651;28;21770;-79
2021/10/05 13:08:11;;;;;;;1111.88;998.85;;;;;;;;;;5009777;28;20040;-79
2021/10/05 13:10:37;;;;;;;1115.22;999.33;;;;;;;;;;5016830;28;20033;-78
2021/10/05 13:13:03;;;;;;;1111.88;998.75;;;;;;;;;;5000203;28;20088;-79
2021/10/05 13:15:30;;;;;;;1102.15;993.08;;;;;;;;;;5000281;28;20021;-78
2021/10/05 13:17:56;;;;;;;1098.82;989.88;;;;;;;;;;5001251;28;20021;-78
2021/10/05 13:20:23;;;;;;;1096.13;987.40;;;;;;;;;;4995952;28;20362;-79
2021/10/05 13:22:49;;;;;;;1092.25;983.67;;;;;;;;;;4995597;28;20382;-79
2021/10/05 13:25:16;;;;;;;1082.93;974.90;;;;;;;;;;4998623;28;20495;-78
2021/10/05 13:27:42;;;;;;;1074.07;966.30;;;;;;;;;;5004511;28;20556;-78
2021/10/05 13:30:09;;;;;;;1079.20;971.38;;;;;;;;;;5002690;28;20030;-78
2021/10/05 13:32:35;;;;;;;1076.15;968.13;;;;;;;;;;5028028;28;20037;-77
2021/10/05 13:35:05;;;;;;;1073.47;965.70;;;;;;;;;;5004745;28;20022;-80
2021/10/05 13:37:31;;;;;;;1062.97;955.80;;;;;;;;;;4997444;28;20072;-79
2021/10/05 13:40:00;;;;;;;1074.05;966.38;;;;;;;;;;4995717;28;20061;-78
2021/10/05 13:42:26;;;;;;;1075.72;967.78;;;;;;;;;;5001094;28;20490;-79
2021/10/05 13:44:55;;;;;;;1072.88;965.03;;;;;;;;;;4998651;28;20022;-79
2021/10/05 13:47:21;;;;;;;1074.32;966.47;;;;;;;;;;5006029;28;20041;-79
2021/10/05 13:49:48;;;;;;;1075.60;967.60;;;;;;;;;;5003124;28;20022;-79